TimeCDT,TemperatureF,Dew PointF,Humidity,Sea Level PressureIn,VisibilityMPH,Wind Direction,Wind SpeedMPH,Gust SpeedMPH,PrecipitationIn,Events,Conditions,WindDirDegrees,DateUTC
12:15 AM,59.0,53.6,82,29.92,10.0,SSE,21.9,31.1,N/A,,Mostly Cloudy,150,2013-05-26 05:15:00
12:35 AM,59.0,53.6,82,29.91,10.0,SE,24.2,39.1,N/A,,Partly Cloudy,140,2013-05-26 05:35:00
12:55 AM,57.2,55.4,94,29.86,10.0,SE,26.5,38.0,N/A,,Scattered Clouds,130,2013-05-26 05:55:00
1:15 AM,57.2,55.4,94,29.87,10.0,SE,23.0,29.9,N/A,,Partly Cloudy,140,2013-05-26 06:15:00
1:35 AM,59.0,53.6,82,29.89,10.0,SSE,17.3,31.1,N/A,,Clear,150,2013-05-26 06:35:00
1:55 AM,59.0,53.6,82,29.90,10.0,SE,8.1,-,N/A,,Clear,130,2013-05-26 06:55:00
2:15 AM,57.2,55.4,94,29.89,10.0,ENE,6.9,-,N/A,,Clear,60,2013-05-26 07:15:00
2:35 AM,57.2,53.6,88,29.91,10.0,NE,9.2,-,N/A,,Clear,40,2013-05-26 07:35:00
2:55 AM,55.4,53.6,94,29.92,9.0,NNE,6.9,-,N/A,,Partly Cloudy,30,2013-05-26 07:55:00
3:15 AM,55.4,53.6,94,29.92,10.0,NE,6.9,-,N/A,,Scattered Clouds,40,2013-05-26 08:15:00
3:35 AM,55.4,53.6,94,29.92,9.0,NE,5.8,-,N/A,,Partly Cloudy,40,2013-05-26 08:35:00
3:55 AM,55.4,53.6,94,29.93,7.0,North,6.9,-,N/A,,Mostly Cloudy,10,2013-05-26 08:55:00
4:15 AM,55.4,53.6,94,29.93,5.0,NNE,8.1,-,N/A,,Overcast,30,2013-05-26 09:15:00
4:35 AM,55.4,53.6,94,29.95,5.0,NE,6.9,-,N/A,,Overcast,40,2013-05-26 09:35:00
4:55 AM,53.6,53.6,100,29.98,5.0,ENE,4.6,-,N/A,,Overcast,60,2013-05-26 09:55:00
5:15 AM,53.6,53.6,100,30.00,5.0,East,9.2,-,N/A,Rain,Light Rain,80,2013-05-26 10:15:00
5:35 AM,53.6,53.6,100,30.00,4.0,ENE,6.9,-,N/A,Rain,Light Rain,60,2013-05-26 10:35:00
5:55 AM,53.6,53.6,100,29.99,4.0,East,9.2,-,N/A,,Overcast,80,2013-05-26 10:55:00
6:15 AM,53.6,53.6,100,29.98,5.0,East,8.1,-,N/A,,Overcast,100,2013-05-26 11:15:00
6:35 AM,53.6,51.8,94,29.98,3.0,East,9.2,-,N/A,,Overcast,100,2013-05-26 11:35:00
6:55 AM,53.6,51.8,94,29.96,4.0,ESE,15.0,20.7,N/A,,Scattered Clouds,120,2013-05-26 11:55:00
7:15 AM,53.6,53.6,100,29.92,7.0,ESE,16.1,24.2,N/A,,Clear,110,2013-05-26 12:15:00
7:35 AM,53.6,51.8,94,29.89,7.0,East,17.3,27.6,N/A,,Scattered Clouds,100,2013-05-26 12:35:00
7:55 AM,53.6,51.8,94,29.90,5.0,ESE,15.0,20.7,N/A,,Mostly Cloudy,110,2013-05-26 12:55:00
8:15 AM,53.6,51.8,94,29.91,7.0,East,8.1,18.4,N/A,,Overcast,90,2013-05-26 13:15:00
8:35 AM,55.4,53.6,94,29.91,8.0,East,6.9,-,N/A,,Scattered Clouds,90,2013-05-26 13:35:00
8:55 AM,55.4,53.6,94,29.92,10.0,East,5.8,-,N/A,,Partly Cloudy,100,2013-05-26 13:55:00
9:15 AM,57.2,53.6,88,29.94,10.0,East,6.9,-,N/A,,Mostly Cloudy,90,2013-05-26 14:15:00
9:35 AM,55.4,53.6,94,29.97,10.0,East,4.6,-,N/A,,Overcast,90,2013-05-26 14:35:00
9:55 AM,55.4,53.6,94,29.97,10.0,SSE,12.7,-,N/A,,Overcast,160,2013-05-26 14:55:00
10:15 AM,55.4,53.6,94,29.98,10.0,SSE,5.8,-,N/A,,Overcast,160,2013-05-26 15:15:00
10:35 AM,55.4,53.6,94,29.99,10.0,Calm,Calm,-,N/A,,Overcast,0,2013-05-26 15:35:00
10:55 AM,57.2,53.6,88,29.99,10.0,Calm,Calm,-,N/A,,Overcast,0,2013-05-26 15:55:00
11:15 AM,57.2,53.6,88,29.99,10.0,South,3.5,-,N/A,,Overcast,170,2013-05-26 16:15:00
11:35 AM,59.0,55.4,88,30.00,10.0,SSE,4.6,-,N/A,,Overcast,160,2013-05-26 16:35:00
12:15 PM,62.6,55.4,77,29.99,10.0,Calm,Calm,-,N/A,,Overcast,0,2013-05-26 17:15:00
12:35 PM,62.6,55.4,77,29.99,10.0,Calm,Calm,-,N/A,,Overcast,0,2013-05-26 17:35:00
12:55 PM,64.4,55.4,73,29.99,10.0,NNW,3.5,-,N/A,,Scattered Clouds,340,2013-05-26 17:55:00
1:15 PM,64.4,55.4,73,29.98,10.0,NNE,5.8,-,N/A,,Scattered Clouds,30,2013-05-26 18:15:00
1:35 PM,64.4,55.4,73,29.97,10.0,South,3.5,-,N/A,,Mostly Cloudy,170,2013-05-26 18:35:00
1:55 PM,66.2,55.4,68,29.97,10.0,ENE,3.5,-,N/A,,Mostly Cloudy,60,2013-05-26 18:55:00
2:15 PM,66.2,55.4,68,29.96,10.0,East,3.5,-,N/A,,Mostly Cloudy,80,2013-05-26 19:15:00
2:35 PM,68.0,55.4,64,29.96,10.0,Calm,Calm,-,N/A,,Scattered Clouds,0,2013-05-26 19:35:00
2:55 PM,68.0,57.2,68,29.96,10.0,SSW,5.8,-,N/A,,Mostly Cloudy,210,2013-05-26 19:55:00
3:15 PM,69.8,57.2,64,29.95,10.0,South,3.5,-,N/A,,Mostly Cloudy,170,2013-05-26 20:15:00
3:35 PM,71.6,55.4,57,29.95,10.0,South,6.9,-,N/A,,Scattered Clouds,180,2013-05-26 20:35:00
3:55 PM,69.8,55.4,60,29.95,10.0,Calm,Calm,-,N/A,,Mostly Cloudy,0,2013-05-26 20:55:00
4:15 PM,71.6,55.4,57,29.95,10.0,Calm,Calm,-,N/A,,Scattered Clouds,0,2013-05-26 21:15:00
4:35 PM,68.0,57.2,68,29.95,10.0,SE,9.2,-,N/A,,Mostly Cloudy,130,2013-05-26 21:35:00
4:55 PM,68.0,57.2,68,29.95,10.0,ESE,9.2,-,N/A,,Mostly Cloudy,120,2013-05-26 21:55:00
5:15 PM,68.0,59.0,73,29.94,10.0,East,5.8,-,N/A,,Overcast,100,2013-05-26 22:15:00
5:35 PM,71.6,59.0,64,29.94,10.0,ESE,6.9,-,N/A,,Overcast,120,2013-05-26 22:35:00
5:55 PM,71.6,57.2,60,29.93,10.0,ESE,5.8,-,N/A,,Partly Cloudy,110,2013-05-26 22:55:00
6:15 PM,71.6,59.0,64,29.93,10.0,ESE,6.9,-,N/A,,Clear,110,2013-05-26 23:15:00
6:35 PM,69.8,57.2,64,29.93,10.0,East,5.8,-,N/A,,Partly Cloudy,100,2013-05-26 23:35:00
6:55 PM,71.6,57.2,60,29.92,10.0,ESE,8.1,-,N/A,,Partly Cloudy,120,2013-05-26 23:55:00
7:15 PM,71.6,57.2,60,29.92,10.0,SE,5.8,-,N/A,,Clear,140,2013-05-27 00:15:00
7:35 PM,69.8,59.0,68,29.92,10.0,SE,15.0,18.4,N/A,,Scattered Clouds,140,2013-05-27 00:35:00
7:55 PM,68.0,59.0,73,29.92,10.0,SE,15.0,-,N/A,,Partly Cloudy,140,2013-05-27 00:55:00
8:15 PM,66.2,59.0,78,29.91,10.0,SE,12.7,21.9,N/A,,Clear,140,2013-05-27 01:15:00
8:35 PM,64.4,59.0,83,29.91,10.0,SSE,12.7,19.6,N/A,,Clear,150,2013-05-27 01:35:00
8:55 PM,64.4,59.0,83,29.91,10.0,SE,8.1,-,N/A,,Clear,140,2013-05-27 01:55:00
9:15 PM,64.4,57.2,77,29.92,10.0,SE,10.4,16.1,N/A,,Clear,140,2013-05-27 02:15:00
9:35 PM,62.6,57.2,82,29.92,10.0,SE,9.2,-,N/A,,Clear,140,2013-05-27 02:35:00
9:55 PM,62.6,57.2,82,29.92,10.0,ESE,5.8,-,N/A,,Clear,110,2013-05-27 02:55:00
10:15 PM,59.0,57.2,94,29.93,10.0,ENE,5.8,-,N/A,,Clear,70,2013-05-27 03:15:00
10:35 PM,59.0,57.2,94,29.93,10.0,East,5.8,-,N/A,,Mostly Cloudy,90,2013-05-27 03:35:00
10:55 PM,57.2,55.4,94,29.92,10.0,East,5.8,-,N/A,,Scattered Clouds,80,2013-05-27 03:55:00
11:15 PM,57.2,55.4,94,29.91,10.0,ENE,5.8,-,N/A,,Partly Cloudy,70,2013-05-27 04:15:00
11:35 PM,57.2,55.4,94,29.90,10.0,ENE,5.8,-,N/A,,Clear,60,2013-05-27 04:35:00
11:55 PM,57.2,55.4,94,29.90,10.0,East,3.5,-,N/A,,Clear,80,2013-05-27 04:55:00